sensor_id;sensor_type;location;lat;lon;timestamp;pressure;altitude;pressure_sealevel;temperature;humidity
12987;BME280;58897;51.960;5.582;2022-10-16T00:01:13;100681.41;;;11.82;100.00
12987;BME280;58897;51.960;5.582;2022-10-16T00:03:41;100687.16;;;11.87;100.00
12987;BME280;58897;51.960;5.582;2022-10-16T00:06:09;100690.72;;;11.79;100.00
12987;BME280;58897;51.960;5.582;2022-10-16T00:08:36;100689.22;;;11.76;100.00
12987;BME280;58897;51.960;5.582;2022-10-16T00:11:24;100688.69;;;11.81;100.00
12987;BME280;58897;51.960;5.582;2022-10-16T00:13:55;100691.03;;;11.84;100.00
12987;BME280;58897;51.960;5.582;2022-10-16T00:16:22;100695.59;;;11.84;100.00
12987;BME280;58897;51.960;5.582;2022-10-16T00:18:49;100694.81;;;11.75;100.00
12987;BME280;58897;51.960;5.582;2022-10-16T00:21:19;100698.53;;;11.74;100.00
12987;BME280;58897;51.960;5.582;2022-10-16T00:23:47;100697.00;;;11.80;100.00
12987;BME280;58897;51.960;5.582;2022-10-16T00:26:17;100698.06;;;11.70;100.00
12987;BME280;58897;51.960;5.582;2022-10-16T00:28:47;100701.91;;;11.76;100.00
12987;BME280;58897;51.960;5.582;2022-10-16T00:31:15;100694.50;;;11.70;100.00
12987;BME280;58897;51.960;5.582;2022-10-16T00:33:43;100691.06;;;11.76;100.00
12987;BME280;58897;51.960;5.582;2022-10-16T00:36:12;100686.69;;;11.75;100.00
12987;BME280;58897;51.960;5.582;2022-10-16T00:38:39;100688.34;;;11.68;100.00
12987;BME280;58897;51.960;5.582;2022-10-16T00:41:07;100695.16;;;11.72;100.00
12987;BME280;58897;51.960;5.582;2022-10-16T00:46:18;100687.69;;;11.74;100.00
12987;BME280;58897;51.960;5.582;2022-10-16T00:48:49;100689.75;;;11.72;100.00
12987;BME280;58897;51.960;5.582;2022-10-16T00:51:21;100690.94;;;11.69;100.00
12987;BME280;58897;51.960;5.582;2022-10-16T00:53:50;100686.16;;;11.80;100.00
12987;BME280;58897;51.960;5.582;2022-10-16T00:56:17;100692.78;;;11.77;100.00
12987;BME280;58897;51.960;5.582;2022-10-16T00:58:44;100697.81;;;11.88;100.00
12987;BME280;58897;51.960;5.582;2022-10-16T01:01:10;100698.97;;;11.94;100.00
12987;BME280;58897;51.960;5.582;2022-10-16T01:03:37;100695.91;;;11.97;100.00
12987;BME280;58897;51.960;5.582;2022-10-16T01:06:23;100707.41;;;11.99;100.00
12987;BME280;58897;51.960;5.582;2022-10-16T01:12:12;100694.81;;;12.14;100.00
12987;BME280;58897;51.960;5.582;2022-10-16T01:15:47;100692.78;;;12.16;100.00
12987;BME280;58897;51.960;5.582;2022-10-16T01:17:49;100691.75;;;12.17;100.00
12987;BME280;58897;51.960;5.582;2022-10-16T01:20:30;100691.22;;;12.21;100.00
12987;BME280;58897;51.960;5.582;2022-10-16T01:23:20;100688.16;;;12.24;100.00
12987;BME280;58897;51.960;5.582;2022-10-16T01:28:24;100700.16;;;12.30;100.00
12987;BME280;58897;51.960;5.582;2022-10-16T01:30:53;100695.41;;;12.32;100.00
12987;BME280;58897;51.960;5.582;2022-10-16T01:33:47;100698.47;;;12.29;100.00
12987;BME280;58897;51.960;5.582;2022-10-16T01:36:21;100700.63;;;12.33;100.00
12987;BME280;58897;51.960;5.582;2022-10-16T01:38:52;100709.75;;;12.41;100.00
12987;BME280;58897;51.960;5.582;2022-10-16T01:41:32;100703.66;;;12.38;100.00
12987;BME280;58897;51.960;5.582;2022-10-16T01:44:05;100706.00;;;12.42;100.00
12987;BME280;58897;51.960;5.582;2022-10-16T01:46:34;100704.50;;;12.39;100.00
12987;BME280;58897;51.960;5.582;2022-10-16T01:49:02;100696.22;;;12.41;100.00
12987;BME280;58897;51.960;5.582;2022-10-16T01:51:29;100691.94;;;12.46;100.00
12987;BME280;58897;51.960;5.582;2022-10-16T01:53:58;100693.44;;;12.49;100.00
12987;BME280;58897;51.960;5.582;2022-10-16T01:56:27;100690.91;;;12.47;100.00
12987;BME280;58897;51.960;5.582;2022-10-16T01:59:10;100703.13;;;12.43;100.00
12987;BME280;58897;51.960;5.582;2022-10-16T02:01:40;100688.72;;;12.43;100.00
12987;BME280;58897;51.960;5.582;2022-10-16T02:04:16;100672.47;;;12.43;100.00
12987;BME280;58897;51.960;5.582;2022-10-16T02:06:44;100682.16;;;12.37;100.00
12987;BME280;58897;51.960;5.582;2022-10-16T02:09:10;100679.47;;;12.37;100.00
12987;BME280;58897;51.960;5.582;2022-10-16T02:11:37;100689.78;;;12.33;100.00
12987;BME280;58897;51.960;5.582;2022-10-16T02:14:05;100697.44;;;12.30;100.00
12987;BME280;58897;51.960;5.582;2022-10-16T02:16:43;100695.09;;;12.27;100.00
12987;BME280;58897;51.960;5.582;2022-10-16T02:19:11;100693.03;;;12.29;100.00
12987;BME280;58897;51.960;5.582;2022-10-16T02:21:56;100705.72;;;12.28;100.00
12987;BME280;58897;51.960;5.582;2022-10-16T02:24:32;100709.19;;;12.22;100.00
12987;BME280;58897;51.960;5.582;2022-10-16T02:29:42;100704.97;;;12.20;100.00
12987;BME280;58897;51.960;5.582;2022-10-16T02:32:12;100702.41;;;12.18;100.00
12987;BME280;58897;51.960;5.582;2022-10-16T02:34:42;100704.97;;;12.20;100.00
12987;BME280;58897;51.960;5.582;2022-10-16T02:37:09;100712.22;;;12.19;100.00
12987;BME280;58897;51.960;5.582;2022-10-16T02:39:37;100705.97;;;12.19;100.00
12987;BME280;58897;51.960;5.582;2022-10-16T02:42:04;100711.19;;;12.20;100.00
12987;BME280;58897;51.960;5.582;2022-10-16T02:44:35;100700.34;;;12.20;100.00
12987;BME280;58897;51.960;5.582;2022-10-16T02:47:01;100703.75;;;12.22;100.00
12987;BME280;58897;51.960;5.582;2022-10-16T02:49:28;100704.22;;;12.26;100.00
12987;BME280;58897;51.960;5.582;2022-10-16T02:51:55;100704.72;;;12.29;100.00
12987;BME280;58897;51.960;5.582;2022-10-16T02:54:21;100714.06;;;12.27;100.00
12987;BME280;58897;51.960;5.582;2022-10-16T02:56:48;100718.44;;;12.28;100.00
12987;BME280;58897;51.960;5.582;2022-10-16T02:59:14;100714.22;;;12.25;100.00
12987;BME280;58897;51.960;5.582;2022-10-16T03:01:41;100710.69;;;12.25;100.00
12987;BME280;58897;51.960;5.582;2022-10-16T03:04:07;100717.09;;;12.24;100.00
12987;BME280;58897;51.960;5.582;2022-10-16T03:06:34;100704.97;;;12.20;100.00
12987;BME280;58897;51.960;5.582;2022-10-16T03:09:00;100715.09;;;12.18;100.00
12987;BME280;58897;51.960;5.582;2022-10-16T03:11:27;100708.16;;;12.15;100.00
12987;BME280;58897;51.960;5.582;2022-10-16T03:13:54;100711.56;;;12.17;100.00
12987;BME280;58897;51.960;5.582;2022-10-16T03:16:20;100707.81;;;12.18;100.00
12987;BME280;58897;51.960;5.582;2022-10-16T03:18:50;100716.13;;;12.17;100.00
12987;BME280;58897;51.960;5.582;2022-10-16T03:21:16;100724.44;;;12.07;100.00
12987;BME280;58897;51.960;5.582;2022-10-16T03:23:43;100717.69;;;12.11;100.00
12987;BME280;58897;51.960;5.582;2022-10-16T03:26:09;100727.13;;;12.15;100.00
12987;BME280;58897;51.960;5.582;2022-10-16T03:28:35;100715.97;;;12.10;100.00
12987;BME280;58897;51.960;5.582;2022-10-16T03:31:02;100721.75;;;12.07;100.00
12987;BME280;58897;51.960;5.582;2022-10-16T03:33:28;100721.59;;;12.09;100.00
12987;BME280;58897;51.960;5.582;2022-10-16T03:35:55;100721.75;;;12.07;100.00
12987;BME280;58897;51.960;5.582;2022-10-16T03:38:22;100721.75;;;12.07;100.00
12987;BME280;58897;51.960;5.582;2022-10-16T03:40:48;100721.28;;;12.04;100.00
12987;BME280;58897;51.960;5.582;2022-10-16T03:43:15;100729.56;;;11.94;100.00
12987;BME280;58897;51.960;5.582;2022-10-16T03:45:41;100734.16;;;11.94;100.00
12987;BME280;58897;51.960;5.582;2022-10-16T03:48:08;100734.50;;;11.91;100.00
12987;BME280;58897;51.960;5.582;2022-10-16T03:50:34;100720.47;;;11.87;100.00
12987;BME280;58897;51.960;5.582;2022-10-16T03:53:00;100719.13;;;11.91;100.00
12987;BME280;58897;51.960;5.582;2022-10-16T03:55:27;100723.03;;;11.89;100.00
12987;BME280;58897;51.960;5.582;2022-10-16T03:57:53;100727.06;;;11.93;100.00
12987;BME280;58897;51.960;5.582;2022-10-16T04:00:20;100728.38;;;11.97;100.00
12987;BME280;58897;51.960;5.582;2022-10-16T04:02:46;100742.97;;;11.96;100.00
12987;BME280;58897;51.960;5.582;2022-10-16T04:05:12;100748.53;;;11.94;100.00
12987;BME280;58897;51.960;5.582;2022-10-16T04:07:39;100744.81;;;11.95;100.00
12987;BME280;58897;51.960;5.582;2022-10-16T04:10:05;100741.09;;;11.96;100.00
12987;BME280;58897;51.960;5.582;2022-10-16T04:12:32;100750.41;;;11.94;100.00
12987;BME280;58897;51.960;5.582;2022-10-16T04:14:58;100753.94;;;11.94;100.00
12987;BME280;58897;51.960;5.582;2022-10-16T04:17:25;100758.16;;;11.97;100.00
12987;BME280;58897;51.960;5.582;2022-10-16T04:19:52;100758.34;;;11.95;100.00
12987;BME280;58897;51.960;5.582;2022-10-16T04:22:18;100759.00;;;11.97;100.00
12987;BME280;58897;51.960;5.582;2022-10-16T04:24:45;100764.94;;;12.01;100.00
12987;BME280;58897;51.960;5.582;2022-10-16T04:27:11;100768.16;;;11.96;100.00
12987;BME280;58897;51.960;5.582;2022-10-16T04:29:38;100780.00;;;11.95;100.00
12987;BME280;58897;51.960;5.582;2022-10-16T04:32:04;100774.94;;;11.92;100.00
12987;BME280;58897;51.960;5.582;2022-10-16T04:34:30;100772.38;;;11.99;100.00
12987;BME280;58897;51.960;5.582;2022-10-16T04:36:57;100777.28;;;11.95;100.00
12987;BME280;58897;51.960;5.582;2022-10-16T04:39:23;100787.47;;;11.93;100.00
12987;BME280;58897;51.960;5.582;2022-10-16T04:41:50;100788.66;;;11.91;100.00
12987;BME280;58897;51.960;5.582;2022-10-16T04:44:16;100797.25;;;11.94;100.00
12987;BME280;58897;51.960;5.582;2022-10-16T04:46:43;100796.09;;;11.89;100.00
12987;BME280;58897;51.960;5.582;2022-10-16T04:49:10;100800.47;;;11.90;100.00
12987;BME280;58897;51.960;5.582;2022-10-16T04:51:36;100790.53;;;11.82;100.00
12987;BME280;58897;51.960;5.582;2022-10-16T04:54:03;100799.81;;;11.88;100.00
12987;BME280;58897;51.960;5.582;2022-10-16T04:56:29;100792.03;;;11.85;100.00
12987;BME280;58897;51.960;5.582;2022-10-16T04:58:56;100802.00;;;11.84;100.00
12987;BME280;58897;51.960;5.582;2022-10-16T05:01:22;100812.84;;;11.84;100.00
12987;BME280;58897;51.960;5.582;2022-10-16T05:03:48;100811.00;;;11.85;100.00
12987;BME280;58897;51.960;5.582;2022-10-16T05:06:15;100813.88;;;11.75;100.00
12987;BME280;58897;51.960;5.582;2022-10-16T05:08:41;100820.47;;;11.81;100.00
12987;BME280;58897;51.960;5.582;2022-10-16T05:11:08;100826.56;;;11.74;100.00
12987;BME280;58897;51.960;5.582;2022-10-16T05:13:34;100832.97;;;11.73;100.00
12987;BME280;58897;51.960;5.582;2022-10-16T05:16:00;100826.22;;;11.77;100.00
12987;BME280;58897;51.960;5.582;2022-10-16T05:18:27;100836.88;;;11.71;100.00
12987;BME280;58897;51.960;5.582;2022-10-16T05:20:53;100835.34;;;11.68;100.00
12987;BME280;58897;51.960;5.582;2022-10-16T05:23:20;100851.22;;;11.63;100.00
12987;BME280;58897;51.960;5.582;2022-10-16T05:25:54;100852.59;;;11.67;100.00
12987;BME280;58897;51.960;5.582;2022-10-16T05:28:21;100849.75;;;11.69;100.00
12987;BME280;58897;51.960;5.582;2022-10-16T05:30:48;100855.47;;;11.66;100.00
12987;BME280;58897;51.960;5.582;2022-10-16T05:33:14;100867.97;;;11.59;100.00
12987;BME280;58897;51.960;5.582;2022-10-16T05:35:41;100867.78;;;11.60;100.00
12987;BME280;58897;51.960;5.582;2022-10-16T05:38:07;100858.34;;;11.56;100.00
12987;BME280;58897;51.960;5.582;2022-10-16T05:40:33;100870.69;;;11.59;100.00
12987;BME280;58897;51.960;5.582;2022-10-16T05:43:00;100874.38;;;11.58;100.00
12987;BME280;58897;51.960;5.582;2022-10-16T05:45:26;100875.09;;;11.60;100.00
12987;BME280;58897;51.960;5.582;2022-10-16T05:47:53;100876.09;;;11.59;100.00
12987;BME280;58897;51.960;5.582;2022-10-16T05:50:19;100875.06;;;11.68;100.00
12987;BME280;58897;51.960;5.582;2022-10-16T05:52:46;100879.31;;;11.62;100.00
12987;BME280;58897;51.960;5.582;2022-10-16T05:55:12;100880.31;;;11.61;100.00
12987;BME280;58897;51.960;5.582;2022-10-16T05:57:39;100879.47;;;11.61;100.00
12987;BME280;58897;51.960;5.582;2022-10-16T06:00:05;100884.41;;;11.57;100.00
12987;BME280;58897;51.960;5.582;2022-10-16T06:02:32;100891.31;;;11.68;100.00
12987;BME280;58897;51.960;5.582;2022-10-16T06:04:58;100891.00;;;11.71;100.00
12987;BME280;58897;51.960;5.582;2022-10-16T06:07:25;100893.19;;;11.67;100.00
12987;BME280;58897;51.960;5.582;2022-10-16T06:09:52;100900.81;;;11.72;100.00
12987;BME280;58897;51.960;5.582;2022-10-16T06:12:19;100905.19;;;11.65;100.00
12987;BME280;58897;51.960;5.582;2022-10-16T06:14:46;100901.31;;;11.67;100.00
12987;BME280;58897;51.960;5.582;2022-10-16T06:17:13;100914.34;;;11.72;100.00
12987;BME280;58897;51.960;5.582;2022-10-16T06:19:40;100907.41;;;11.69;100.00
12987;BME280;58897;51.960;5.582;2022-10-16T06:22:06;100911.66;;;11.72;100.00
12987;BME280;58897;51.960;5.582;2022-10-16T06:24:33;100916.72;;;11.75;100.00
12987;BME280;58897;51.960;5.582;2022-10-16T06:26:59;100920.75;;;11.71;100.00
12987;BME280;58897;51.960;5.582;2022-10-16T06:29:25;100919.91;;;11.78;100.00
12987;BME280;58897;51.960;5.582;2022-10-16T06:31:52;100925.34;;;11.78;100.00
12987;BME280;58897;51.960;5.582;2022-10-16T06:34:19;100931.78;;;11.77;100.00
12987;BME280;58897;51.960;5.582;2022-10-16T06:36:45;100935.50;;;11.76;100.00
12987;BME280;58897;51.960;5.582;2022-10-16T06:39:12;100942.09;;;11.74;100.00
12987;BME280;58897;51.960;5.582;2022-10-16T06:41:38;100945.81;;;11.81;100.00
12987;BME280;58897;51.960;5.582;2022-10-16T06:44:05;100948.88;;;11.78;100.00
12987;BME280;58897;51.960;5.582;2022-10-16T06:46:33;100953.94;;;11.89;100.00
12987;BME280;58897;51.960;5.582;2022-10-16T06:49:00;100962.56;;;11.85;100.00
12987;BME280;58897;51.960;5.582;2022-10-16T06:51:26;100962.38;;;11.94;100.00
12987;BME280;58897;51.960;5.582;2022-10-16T06:53:54;100962.38;;;11.94;100.00
12987;BME280;58897;51.960;5.582;2022-10-16T06:56:31;100965.94;;;11.95;100.00
12987;BME280;58897;51.960;5.582;2022-10-16T06:58:58;100967.66;;;12.04;100.00
12987;BME280;58897;51.960;5.582;2022-10-16T07:01:25;100976.63;;;12.04;100.00
12987;BME280;58897;51.960;5.582;2022-10-16T07:03:52;100984.56;;;12.14;100.00
12987;BME280;58897;51.960;5.582;2022-10-16T07:06:21;100993.22;;;12.17;100.00
12987;BME280;58897;51.960;5.582;2022-10-16T07:08:48;100992.50;;;12.31;100.00
12987;BME280;58897;51.960;5.582;2022-10-16T07:11:17;101002.16;;;12.42;100.00
12987;BME280;58897;51.960;5.582;2022-10-16T07:13:45;101007.69;;;12.57;100.00
12987;BME280;58897;51.960;5.582;2022-10-16T07:16:21;101015.50;;;12.60;100.00
12987;BME280;58897;51.960;5.582;2022-10-16T07:18:48;101022.94;;;12.66;100.00
12987;BME280;58897;51.960;5.582;2022-10-16T07:21:19;101020.88;;;12.84;100.00
12987;BME280;58897;51.960;5.582;2022-10-16T07:23:53;101026.66;;;12.73;100.00
12987;BME280;58897;51.960;5.582;2022-10-16T07:26:19;101035.81;;;12.64;100.00
12987;BME280;58897;51.960;5.582;2022-10-16T07:28:46;101041.25;;;12.56;100.00
12987;BME280;58897;51.960;5.582;2022-10-16T07:31:13;101047.69;;;12.63;100.00
12987;BME280;58897;51.960;5.582;2022-10-16T07:33:41;101041.91;;;12.66;100.00
12987;BME280;58897;51.960;5.582;2022-10-16T07:36:11;101050.16;;;12.96;100.00
12987;BME280;58897;51.960;5.582;2022-10-16T07:38:41;101051.53;;;12.84;100.00
12987;BME280;58897;51.960;5.582;2022-10-16T07:41:13;101047.66;;;12.79;100.00
12987;BME280;58897;51.960;5.582;2022-10-16T07:43:40;101058.69;;;12.77;100.00
12987;BME280;58897;51.960;5.582;2022-10-16T07:46:11;101055.59;;;12.80;100.00
12987;BME280;58897;51.960;5.582;2022-10-16T07:48:37;101060.19;;;12.80;100.00
12987;BME280;58897;51.960;5.582;2022-10-16T07:51:05;101054.59;;;12.89;100.00
12987;BME280;58897;51.960;5.582;2022-10-16T07:53:33;101058.13;;;12.98;100.00
12987;BME280;58897;51.960;5.582;2022-10-16T07:56:04;101053.53;;;12.98;100.00
12987;BME280;58897;51.960;5.582;2022-10-16T07:58:32;101064.03;;;13.10;100.00
12987;BME280;58897;51.960;5.582;2022-10-16T08:01:03;101067.41;;;13.20;100.00
12987;BME280;58897;51.960;5.582;2022-10-16T08:03:30;101074.19;;;13.16;100.00
12987;BME280;58897;51.960;5.582;2022-10-16T08:05:58;101087.44;;;13.19;100.00
12987;BME280;58897;51.960;5.582;2022-10-16T08:08:25;101085.38;;;13.21;100.00
12987;BME280;58897;51.960;5.582;2022-10-16T08:10:52;101088.63;;;13.16;100.00
12987;BME280;58897;51.960;5.582;2022-10-16T08:13:18;101097.72;;;13.31;100.00
12987;BME280;58897;51.960;5.582;2022-10-16T08:15:45;101099.38;;;13.32;100.00
12987;BME280;58897;51.960;5.582;2022-10-16T08:18:13;101099.53;;;13.47;100.00
12987;BME280;58897;51.960;5.582;2022-10-16T08:20:41;101099.91;;;13.36;100.00
12987;BME280;58897;51.960;5.582;2022-10-16T08:23:10;101104.06;;;13.54;100.00
12987;BME280;58897;51.960;5.582;2022-10-16T08:25:37;101111.97;;;13.72;100.00
12987;BME280;58897;51.960;5.582;2022-10-16T08:28:05;101104.75;;;14.18;100.00
12987;BME280;58897;51.960;5.582;2022-10-16T08:30:31;101113.31;;;15.27;100.00
12987;BME280;58897;51.960;5.582;2022-10-16T08:32:58;101119.41;;;15.29;100.00
12987;BME280;58897;51.960;5.582;2022-10-16T08:35:24;101117.84;;;14.82;100.00
12987;BME280;58897;51.960;5.582;2022-10-16T08:37:51;101112.13;;;14.92;100.00
12987;BME280;58897;51.960;5.582;2022-10-16T08:40:26;101119.50;;;14.69;100.00
12987;BME280;58897;51.960;5.582;2022-10-16T08:51:08;101132.97;;;16.52;100.00
12987;BME280;58897;51.960;5.582;2022-10-16T08:53:43;101127.41;;;16.67;99.19
12987;BME280;58897;51.960;5.582;2022-10-16T08:56:11;101132.72;;;16.96;97.08
12987;BME280;58897;51.960;5.582;2022-10-16T08:58:37;101134.28;;;17.40;95.19
12987;BME280;58897;51.960;5.582;2022-10-16T09:01:11;101145.81;;;17.35;93.24
12987;BME280;58897;51.960;5.582;2022-10-16T09:06:44;101149.47;;;16.93;95.41
12987;BME280;58897;51.960;5.582;2022-10-16T09:09:37;101144.03;;;17.83;90.13
12987;BME280;58897;51.960;5.582;2022-10-16T09:12:17;101150.81;;;18.67;90.71
12987;BME280;58897;51.960;5.582;2022-10-16T09:20:24;101146.25;;;18.20;87.66
12987;BME280;58897;51.960;5.582;2022-10-16T09:23:07;101156.53;;;18.79;85.40
12987;BME280;58897;51.960;5.582;2022-10-16T09:25:36;101154.44;;;18.87;86.32
12987;BME280;58897;51.960;5.582;2022-10-16T09:28:04;101163.66;;;19.32;83.88
12987;BME280;58897;51.960;5.582;2022-10-16T09:30:30;101167.50;;;19.05;83.83
12987;BME280;58897;51.960;5.582;2022-10-16T09:32:58;101165.59;;;19.32;84.05
12987;BME280;58897;51.960;5.582;2022-10-16T09:35:35;101171.03;;;19.58;82.29
12987;BME280;58897;51.960;5.582;2022-10-16T09:38:03;101180.34;;;19.18;84.07
12987;BME280;58897;51.960;5.582;2022-10-16T09:40:36;101184.09;;;18.90;85.20
12987;BME280;58897;51.960;5.582;2022-10-16T09:43:16;101173.56;;;19.27;85.46
12987;BME280;58897;51.960;5.582;2022-10-16T09:49:02;101182.22;;;19.30;83.11
12987;BME280;58897;51.960;5.582;2022-10-16T09:51:36;101179.69;;;19.55;81.38
12987;BME280;58897;51.960;5.582;2022-10-16T09:56:34;101198.38;;;19.84;80.88
12987;BME280;58897;51.960;5.582;2022-10-16T09:59:18;101190.53;;;20.07;78.59
12987;BME280;58897;51.960;5.582;2022-10-16T10:01:47;101183.72;;;20.16;79.59
12987;BME280;58897;51.960;5.582;2022-10-16T10:04:14;101185.00;;;20.58;78.49
12987;BME280;58897;51.960;5.582;2022-10-16T10:06:45;101180.31;;;21.46;72.69
12987;BME280;58897;51.960;5.582;2022-10-16T10:09:27;101180.13;;;21.23;72.81
12987;BME280;58897;51.960;5.582;2022-10-16T10:11:57;101184.59;;;21.42;70.61
12987;BME280;58897;51.960;5.582;2022-10-16T10:14:31;101192.09;;;21.35;71.46
12987;BME280;58897;51.960;5.582;2022-10-16T10:19:41;101193.09;;;21.16;70.18
12987;BME280;58897;51.960;5.582;2022-10-16T10:22:29;101193.94;;;22.02;68.99
12987;BME280;58897;51.960;5.582;2022-10-16T10:28:03;101197.91;;;21.88;68.61
12987;BME280;58897;51.960;5.582;2022-10-16T10:38:58;101197.13;;;22.95;66.78
12987;BME280;58897;51.960;5.582;2022-10-16T10:44:06;101203.31;;;21.51;67.99
12987;BME280;58897;51.960;5.582;2022-10-16T10:46:51;101208.69;;;21.89;70.52
12987;BME280;58897;51.960;5.582;2022-10-16T11:06:20;101220.28;;;21.67;66.21
12987;BME280;58897;51.960;5.582;2022-10-16T11:11:54;101228.88;;;21.59;64.46
12987;BME280;58897;51.960;5.582;2022-10-16T11:15:00;101237.56;;;21.98;60.56
12987;BME280;58897;51.960;5.582;2022-10-16T11:17:31;101233.16;;;21.23;64.76
12987;BME280;58897;51.960;5.582;2022-10-16T11:20:18;101234.75;;;22.71;59.58
12987;BME280;58897;51.960;5.582;2022-10-16T11:22:55;101228.53;;;23.05;56.96
12987;BME280;58897;51.960;5.582;2022-10-16T11:25:29;101235.72;;;21.68;62.28
12987;BME280;58897;51.960;5.582;2022-10-16T11:28:16;101247.44;;;20.25;68.44
12987;BME280;58897;51.960;5.582;2022-10-16T11:30:50;101235.66;;;22.17;64.56
12987;BME280;58897;51.960;5.582;2022-10-16T11:35:50;101241.97;;;20.69;66.36
12987;BME280;58897;51.960;5.582;2022-10-16T11:38:33;101244.50;;;22.37;62.32
12987;BME280;58897;51.960;5.582;2022-10-16T11:41:31;101241.38;;;22.52;57.94
12987;BME280;58897;51.960;5.582;2022-10-16T11:49:47;101242.41;;;22.69;56.67
12987;BME280;58897;51.960;5.582;2022-10-16T11:52:38;101243.63;;;23.03;55.70
12987;BME280;58897;51.960;5.582;2022-10-16T11:57:39;101258.31;;;22.85;54.32
12987;BME280;58897;51.960;5.582;2022-10-16T12:00:14;101255.16;;;22.82;53.98
12987;BME280;58897;51.960;5.582;2022-10-16T12:05:35;101258.25;;;22.55;56.06
12987;BME280;58897;51.960;5.582;2022-10-16T12:08:11;101263.72;;;21.83;57.59
12987;BME280;58897;51.960;5.582;2022-10-16T12:10:41;101263.38;;;21.73;57.47
12987;BME280;58897;51.960;5.582;2022-10-16T12:13:28;101261.25;;;23.43;54.75
12987;BME280;58897;51.960;5.582;2022-10-16T12:18:39;101269.44;;;23.20;52.86
12987;BME280;58897;51.960;5.582;2022-10-16T12:21:06;101268.44;;;23.44;52.08
12987;BME280;58897;51.960;5.582;2022-10-16T12:23:38;101266.50;;;23.45;53.83
12987;BME280;58897;51.960;5.582;2022-10-16T12:26:05;101259.09;;;23.45;56.10
12987;BME280;58897;51.960;5.582;2022-10-16T12:28:33;101266.69;;;23.20;53.84
12987;BME280;58897;51.960;5.582;2022-10-16T12:31:01;101274.47;;;22.63;59.24
12987;BME280;58897;51.960;5.582;2022-10-16T12:33:29;101261.50;;;23.12;55.81
12987;BME280;58897;51.960;5.582;2022-10-16T12:35:58;101277.78;;;23.02;54.38
12987;BME280;58897;51.960;5.582;2022-10-16T12:41:25;101273.69;;;22.56;55.61
12987;BME280;58897;51.960;5.582;2022-10-16T12:43:51;101279.09;;;22.99;55.58
12987;BME280;58897;51.960;5.582;2022-10-16T12:48:44;101274.47;;;22.45;56.48
12987;BME280;58897;51.960;5.582;2022-10-16T12:59:16;101277.81;;;23.78;51.40
12987;BME280;58897;51.960;5.582;2022-10-16T13:02:02;101277.91;;;23.60;51.87
12987;BME280;58897;51.960;5.582;2022-10-16T13:05:26;101269.88;;;24.05;50.87
12987;BME280;58897;51.960;5.582;2022-10-16T13:10:28;101278.97;;;22.76;53.60
12987;BME280;58897;51.960;5.582;2022-10-16T13:13:16;101277.59;;;22.85;53.59
12987;BME280;58897;51.960;5.582;2022-10-16T13:15:57;101277.97;;;22.89;53.95
12987;BME280;58897;51.960;5.582;2022-10-16T13:18:48;101280.91;;;22.76;54.93
12987;BME280;58897;51.960;5.582;2022-10-16T13:21:43;101281.69;;;22.64;55.17
12987;BME280;58897;51.960;5.582;2022-10-16T13:25:31;101280.66;;;23.07;56.61
12987;BME280;58897;51.960;5.582;2022-10-16T13:27:55;101279.59;;;22.05;56.63
12987;BME280;58897;51.960;5.582;2022-10-16T13:30:23;101283.41;;;21.80;57.63
12987;BME280;58897;51.960;5.582;2022-10-16T13:33:06;101284.03;;;22.06;57.49
12987;BME280;58897;51.960;5.582;2022-10-16T13:35:34;101287.69;;;21.76;57.10
12987;BME280;58897;51.960;5.582;2022-10-16T13:38:06;101296.91;;;21.88;57.16
12987;BME280;58897;51.960;5.582;2022-10-16T13:41:06;101301.41;;;21.26;59.40
12987;BME280;58897;51.960;5.582;2022-10-16T13:43:48;101299.97;;;21.17;58.87
12987;BME280;58897;51.960;5.582;2022-10-16T13:46:20;101302.09;;;21.46;59.58
12987;BME280;58897;51.960;5.582;2022-10-16T13:48:58;101303.75;;;21.23;59.77
12987;BME280;58897;51.960;5.582;2022-10-16T13:51:25;101316.13;;;20.56;60.69
12987;BME280;58897;51.960;5.582;2022-10-16T13:53:52;101318.69;;;20.51;61.30
12987;BME280;58897;51.960;5.582;2022-10-16T13:56:22;101310.41;;;20.58;61.47
12987;BME280;58897;51.960;5.582;2022-10-16T13:59:03;101308.38;;;20.33;63.10
12987;BME280;58897;51.960;5.582;2022-10-16T14:01:34;101308.88;;;19.71;65.92
12987;BME280;58897;51.960;5.582;2022-10-16T14:04:08;101303.56;;;20.29;64.99
12987;BME280;58897;51.960;5.582;2022-10-16T14:06:40;101304.66;;;20.02;67.23
12987;BME280;58897;51.960;5.582;2022-10-16T14:09:27;101311.22;;;19.94;66.67
12987;BME280;58897;51.960;5.582;2022-10-16T14:12:00;101315.38;;;20.16;65.95
12987;BME280;58897;51.960;5.582;2022-10-16T14:14:40;101313.06;;;19.35;67.06
12987;BME280;58897;51.960;5.582;2022-10-16T14:17:26;101314.38;;;19.71;66.08
12987;BME280;58897;51.960;5.582;2022-10-16T14:19:56;101318.56;;;19.87;67.19
12987;BME280;58897;51.960;5.582;2022-10-16T14:22:36;101316.03;;;19.92;66.99
12987;BME280;58897;51.960;5.582;2022-10-16T14:27:45;101311.00;;;19.69;68.59
12987;BME280;58897;51.960;5.582;2022-10-16T14:30:17;101308.06;;;19.64;69.08
12987;BME280;58897;51.960;5.582;2022-10-16T14:32:55;101310.59;;;19.46;68.84
12987;BME280;58897;51.960;5.582;2022-10-16T14:35:28;101310.59;;;19.46;69.80
12987;BME280;58897;51.960;5.582;2022-10-16T14:37:56;101310.28;;;19.02;71.47
12987;BME280;58897;51.960;5.582;2022-10-16T14:40:25;101301.59;;;18.85;71.77
12987;BME280;58897;51.960;5.582;2022-10-16T14:42:53;101311.22;;;18.68;72.16
12987;BME280;58897;51.960;5.582;2022-10-16T14:45:21;101309.78;;;18.79;73.10
12987;BME280;58897;51.960;5.582;2022-10-16T14:47:52;101310.00;;;18.84;72.51